Terminal Aerodrome Forecast
Issued by NWS

Home | Current Version | Previous Version | Text Only | Print | Product List | Glossary On
Versions: 1 2 3 4 5 6 7 8 9 10 11 12 13 14 15 16 17 18 19 20 21 22 23 24 25 26 27 28 29 30 31 32 33 34 35 36 37 38
000
FTUS43 KGRB 200600 AAA
TAFRHI
TAF AMD
KRHI 200623Z 2006/2106 28011KT P6SM SCT030 SCT050
      TEMPO 2006/2010 -SHSN BKN030
     FM201000 29009KT P6SM SCT017 SCT030
      TEMPO 2010/2014 1 1/2SM -SHSN BKN017 BKN030
     FM201600 28011G19KT P6SM BKN030
     FM202300 28005KT P6SM SCT035=

USA.gov is the U.S. government's official web portal to all federal, state and local government web resources and services.